Almi Sky — D5CQ7 — position and weather

sailwx.info

Track history (hours):
 
Tides and Currents Weather Stations Pressure Air Temp Water Temp Dewpoint Dewpoint Depression Visibility Wind Speed Wind Dir Waves Ship Positions

Almi Sky

Last reported at 2018-Jun-25 09:49 UTC. Time now 2018-Jul-18 18:35 UTC.
Position N 37°56' W 073°55'.
Warning: this ship's position is 23 days out of date.

Length 274 m; draft 9.5 m.

Type: Ship (hazmat cat D). MMSI: 636015761.

Date/timePositionNaut miles runAvg speedWind from/ knotsBaromVisibWave heightAir tempDewpointWater temp
2018-Jun-25 09:49N 37°56' W 073°55'515.2
2018-Jun-25 09:31N 37°59' W 073°60'2615.2
2018-Jun-25 07:49N 38°15' W 074°25'514.8
2018-Jun-25 07:30N 38°18' W 074°30'815.2
2018-Jun-25 07:01N 38°23' W 074°37'815.4
2018-Jun-25 06:30N 38°28' W 074°45'1615.1
2018-Jun-25 05:27N 38°41' W 074°57'716.0
2018-Jun-25 05:00N 38°46' W 075°02'713.8
2018-Jun-25 04:30N 38°53' W 075°05'917.7
2018-Jun-25 04:00N 39°01' W 075°09'815.2
2018-Jun-25 03:30N 39°08' W 075°14'815.6
2018-Jun-25 03:00N 39°15' W 075°19'815.8
2018-Jun-25 02:30N 39°20' W 075°26'713.2
2018-Jun-25 02:00N 39°25' W 075°31'4 8.5
2018-Jun-25 01:30N 39°29' W 075°34'4 7.8
2018-Jun-25 01:00N 39°33' W 075°32'611.0
2018-Jun-25 00:30N 39°38' W 075°34'611.3
2018-Jun-25 00:01N 39°43' W 075°30'510.1
2018-Jun-24 23:31N 39°47' W 075°27'2 4.0
2018-Jun-24 22:59N 39°48' W 075°24'0 0.3
2018-Jun-24 22:29N 39°48' W 075°25'0 0.3
2018-Jun-24 21:59N 39°48' W 075°25'0 0.1
2018-Jun-24 21:30N 39°48' W 075°25'0 0.0
2018-Jun-24 20:59N 39°48' W 075°25'0 0.0
2018-Jun-24 20:29N 39°48' W 075°25'0 0.0
2018-Jun-24 19:59N 39°48' W 075°25'0 0.0
2018-Jun-24 19:29N 39°48' W 075°25'0 0.1
2018-Jun-24 18:56N 39°48' W 075°25'0 0.0
2018-Jun-24 18:29N 39°48' W 075°25'0 0.0
2018-Jun-24 17:59N 39°48' W 075°25'0 0.1
2018-Jun-24 17:29N 39°48' W 075°25'0 0.2
2018-Jun-24 16:59N 39°48' W 075°24'0 0.3
2018-Jun-24 16:29N 39°48' W 075°24'0 0.1
2018-Jun-24 15:59N 39°48' W 075°24'0 0.0
2018-Jun-24 15:29N 39°48' W 075°24'0 0.0
2018-Jun-24 14:59N 39°48' W 075°24'0 0.0
2018-Jun-24 14:29N 39°48' W 075°24'0 0.0
2018-Jun-24 13:59N 39°48' W 075°24'0 0.0
2018-Jun-24 13:29N 39°48' W 075°24'0 0.0
2018-Jun-24 12:59N 39°48' W 075°24'0 0.0
2018-Jun-24 12:26N 39°48' W 075°24'0 0.0
2018-Jun-24 11:59N 39°48' W 075°24'0 0.0
2018-Jun-24 11:29N 39°48' W 075°24'0 0.5
2018-Jun-24 10:59N 39°48' W 075°25'0 0.2
2018-Jun-24 10:29N 39°48' W 075°25'0 0.1
2018-Jun-24 09:59N 39°48' W 075°25'0 0.1
2018-Jun-24 09:29N 39°48' W 075°25'0 0.0
2018-Jun-24 08:59N 39°48' W 075°25'0 0.0
2018-Jun-24 08:29N 39°48' W 075°25'0 0.0
2018-Jun-24 07:59N 39°48' W 075°25'0 0.0
2018-Jun-24 07:29N 39°48' W 075°25'0 0.1
2018-Jun-24 06:59N 39°48' W 075°25'1 1.0
2018-Jun-24 06:26N 39°49' W 075°24'0 0.0
2018-Jun-24 05:59N 39°49' W 075°24'0 0.0
2018-Jun-24 05:29N 39°49' W 075°24'0 0.0
2018-Jun-24 04:59N 39°49' W 075°24'0 0.0
2018-Jun-24 04:29N 39°49' W 075°24'0 0.0
2018-Jun-24 03:59N 39°49' W 075°24'0 0.0
2018-Jun-24 03:29N 39°49' W 075°24'0 0.0
2018-Jun-24 03:00N 39°49' W 075°24'0 0.0
2018-Jun-24 02:29N 39°49' W 075°24'0 0.0
2018-Jun-24 02:00N 39°49' W 075°24'0 0.0
2018-Jun-24 01:29N 39°49' W 075°24'0 0.0
2018-Jun-24 00:59N 39°49' W 075°24'0 0.0
2018-Jun-24 00:26N 39°49' W 075°24'0 0.0
2018-Jun-24 00:00N 39°49' W 075°24'0 0.0
2018-Jun-23 23:29N 39°49' W 075°24'0 0.0
2018-Jun-23 23:00N 39°49' W 075°24'0 0.0
2018-Jun-23 22:30N 39°49' W 075°24'0 0.0
2018-Jun-23 21:59N 39°49' W 075°24'0 0.0
2018-Jun-23 21:27N 39°49' W 075°24'0 0.0
2018-Jun-23 21:00N 39°49' W 075°24'0 0.0
2018-Jun-23 20:29N 39°49' W 075°24'0 0.0
2018-Jun-23 19:56N 39°49' W 075°24'0 0.0
2018-Jun-23 19:30N 39°49' W 075°24'0 0.0
2018-Jun-23 19:00N 39°49' W 075°24'0 0.0
2018-Jun-23 18:29N 39°49' W 075°24'0 0.0
2018-Jun-23 18:00N 39°49' W 075°24'0 0.0
2018-Jun-23 17:29N 39°49' W 075°24'0 0.0
2018-Jun-23 17:00N 39°49' W 075°24'0 0.0
2018-Jun-23 16:30N 39°49' W 075°24'0 0.0
2018-Jun-23 15:59N 39°49' W 075°24'0 0.0
2018-Jun-23 15:29N 39°49' W 075°24'0 0.0
2018-Jun-23 14:59N 39°49' W 075°24'0 0.0
2018-Jun-23 14:29N 39°49' W 075°24'0 0.0
2018-Jun-23 13:59N 39°49' W 075°24'0 0.0
2018-Jun-23 13:29N 39°49' W 075°24'0 0.0
2018-Jun-23 12:59N 39°49' W 075°24'0 0.0
2018-Jun-23 12:29N 39°49' W 075°24'0 0.0
2018-Jun-23 11:59N 39°49' W 075°24'0 0.0
2018-Jun-23 11:29N 39°49' W 075°24'0 0.0
2018-Jun-23 10:59N 39°49' W 075°24'0 0.0
2018-Jun-23 10:29N 39°49' W 075°24'0 0.0
2018-Jun-23 09:59N 39°49' W 075°24'0 0.0
2018-Jun-23 09:29N 39°49' W 075°24'0 0.0
2018-Jun-23 09:00N 39°49' W 075°24'0 0.0
2018-Jun-23 08:29N 39°49' W 075°24'0 0.0
2018-Jun-23 07:59N 39°49' W 075°24'0 0.0
2018-Jun-23 07:29N 39°49' W 075°24'0 0.0
2018-Jun-23 06:59N 39°49' W 075°24'0 0.0
2018-Jun-23 06:29N 39°49' W 075°24'0 0.0
2018-Jun-23 05:59N 39°49' W 075°24'0 0.0
2018-Jun-23 05:29N 39°49' W 075°24'0 0.0
2018-Jun-23 04:59N 39°49' W 075°24'0 0.0
2018-Jun-23 04:29N 39°49' W 075°24'0 0.0
2018-Jun-23 03:59N 39°49' W 075°24'0 0.0
2018-Jun-23 03:29N 39°49' W 075°24'0 0.0
2018-Jun-23 02:59N 39°49' W 075°24'0 0.0
2018-Jun-23 02:29N 39°49' W 075°24'0 0.0
2018-Jun-23 01:56N 39°49' W 075°24'0 0.0
2018-Jun-23 01:29N 39°49' W 075°24'0 0.0
2018-Jun-23 00:59N 39°49' W 075°24'0 0.0
2018-Jun-23 00:29N 39°49' W 075°24'0 0.0
2018-Jun-22 23:59N 39°49' W 075°24'0 0.0
2018-Jun-22 23:29N 39°49' W 075°24'0 0.0
2018-Jun-22 22:59N 39°49' W 075°24'0 0.0
2018-Jun-22 22:29N 39°49' W 075°24'0 0.0
2018-Jun-22 21:59N 39°49' W 075°24'0 0.0
2018-Jun-22 21:29N 39°49' W 075°24'0 0.0
2018-Jun-22 20:59N 39°49' W 075°24'0 0.0
2018-Jun-22 20:29N 39°49' W 075°24'0 0.0
2018-Jun-22 19:59N 39°49' W 075°24'0 0.0
2018-Jun-22 19:29N 39°49' W 075°24'0 0.0
2018-Jun-22 18:59N 39°49' W 075°24'0 0.0
2018-Jun-22 18:30N 39°49' W 075°24'0 0.0
2018-Jun-22 17:59N 39°49' W 075°24'0 0.0
2018-Jun-22 17:29N 39°49' W 075°24'0 0.0
2018-Jun-22 16:56N 39°49' W 075°24'0 0.0
2018-Jun-22 16:30N 39°49' W 075°24'0 0.0
2018-Jun-22 16:00N 39°49' W 075°24'0 0.0
2018-Jun-22 15:29N 39°49' W 075°24'0 0.0
2018-Jun-22 14:56N 39°49' W 075°24'0 0.0
2018-Jun-22 14:29N 39°49' W 075°24'0 0.0
2018-Jun-22 13:59N 39°49' W 075°24'0 0.0
2018-Jun-22 13:29N 39°49' W 075°24'0 0.0
2018-Jun-22 12:59N 39°49' W 075°24'0 0.0
2018-Jun-22 12:29N 39°49' W 075°24'0 0.0
2018-Jun-22 11:59N 39°49' W 075°24'0 0.0
2018-Jun-22 11:23N 39°49' W 075°24'0 0.0
2018-Jun-22 10:59N 39°49' W 075°24'0 0.0
2018-Jun-22 10:29N 39°49' W 075°24'0 0.0
2018-Jun-22 09:56N 39°49' W 075°24'0 0.0
2018-Jun-22 09:29N 39°49' W 075°24'0 0.0
2018-Jun-22 08:59N 39°49' W 075°24'0 0.0
2018-Jun-22 08:26N 39°49' W 075°24'0 0.0
2018-Jun-22 07:59N 39°49' W 075°24'0 0.0
2018-Jun-22 07:26N 39°49' W 075°24'0 0.0
2018-Jun-22 06:59N 39°49' W 075°24'0 0.0
2018-Jun-22 06:29N 39°49' W 075°24'0 0.0
2018-Jun-22 05:59N 39°49' W 075°24'0 0.0
2018-Jun-22 05:29N 39°49' W 075°24'0 0.0
2018-Jun-22 04:59N 39°49' W 075°24'0 0.0
2018-Jun-22 04:29N 39°49' W 075°24'0 0.0
2018-Jun-22 03:59N 39°49' W 075°24'0 0.0
2018-Jun-22 03:29N 39°49' W 075°24'0 0.0
2018-Jun-22 02:59N 39°49' W 075°24'0 0.0
2018-Jun-22 02:29N 39°49' W 075°24'0 0.0
2018-Jun-22 01:59N 39°49' W 075°24'0 0.0
2018-Jun-22 01:29N 39°49' W 075°24'0 0.0
2018-Jun-22 00:59N 39°49' W 075°24'0 0.0
2018-Jun-22 00:29N 39°49' W 075°24'0 0.0
2018-Jun-21 23:59N 39°49' W 075°24'0 0.0
2018-Jun-21 23:26N 39°49' W 075°24'0 0.0
2018-Jun-21 22:59N 39°49' W 075°24'0 0.0
2018-Jun-21 22:30N 39°49' W 075°24'0 0.0
2018-Jun-21 21:59N 39°49' W 075°24'0 0.0
2018-Jun-21 21:30N 39°49' W 075°24'0 0.0
2018-Jun-21 20:59N 39°49' W 075°24'0 0.0
2018-Jun-21 20:29N 39°49' W 075°24'0 0.0
2018-Jun-21 19:59N 39°49' W 075°24'0 0.0
2018-Jun-21 19:29N 39°49' W 075°24'0 0.0
2018-Jun-21 18:59N 39°49' W 075°24'0 0.0
2018-Jun-21 18:29N 39°49' W 075°24'0 0.0
2018-Jun-21 17:59N 39°49' W 075°24'0 0.0
2018-Jun-21 17:29N 39°49' W 075°24'0 0.0
2018-Jun-21 16:59N 39°49' W 075°24'0 0.0
2018-Jun-21 16:29N 39°49' W 075°24'0 0.0
2018-Jun-21 15:59N 39°49' W 075°24'0 0.0
2018-Jun-21 15:29N 39°49' W 075°24'0 0.0
2018-Jun-21 14:59N 39°49' W 075°24'0 0.0
2018-Jun-21 14:29N 39°49' W 075°24'0 0.0
2018-Jun-21 13:59N 39°49' W 075°24'0 0.0
2018-Jun-21 13:29N 39°49' W 075°24'0 0.0
2018-Jun-21 12:59N 39°49' W 075°24'0 0.0
2018-Jun-21 12:29N 39°49' W 075°24'0 0.0
2018-Jun-21 11:59N 39°49' W 075°24'0 0.0
2018-Jun-21 11:29N 39°49' W 075°24'0 0.0
2018-Jun-21 10:59N 39°49' W 075°24'0 0.0
2018-Jun-21 10:30N 39°49' W 075°24'1 1.6
2018-Jun-21 10:00N 39°48' W 075°25'3 5.7
2018-Jun-21 09:30N 39°46' W 075°28'4 7.9
2018-Jun-21 09:00N 39°43' W 075°30'4 8.2
2018-Jun-21 08:30N 39°39' W 075°33'510.5
2018-Jun-21 08:00N 39°34' W 075°33'612.6
2018-Jun-21 07:30N 39°28' W 075°34'714.3
2018-Jun-21 07:00N 39°22' W 075°28'714.6
2018-Jun-21 06:30N 39°17' W 075°21'714.0
2018-Jun-21 06:00N 39°11' W 075°16'611.9
2018-Jun-21 05:30N 39°06' W 075°12'713.9
2018-Jun-21 05:01N 38°60' W 075°08'713.3
2018-Jun-21 04:30N 38°54' W 075°05'4 8.5
2018-Jun-21 04:00N 38°56' W 075°09'2 3.1
2018-Jun-21 03:30N 38°57' W 075°11'0 0.1
2018-Jun-21 02:59N 38°57' W 075°11'0 0.1
2018-Jun-21 02:26N 38°57' W 075°11'0 0.0
2018-Jun-21 01:59N 38°57' W 075°11'0 0.0
2018-Jun-21 01:29N 38°57' W 075°11'0 0.0
2018-Jun-21 00:59N 38°57' W 075°11'0 0.0
2018-Jun-21 00:26N 38°57' W 075°11'0 0.0
2018-Jun-20 23:59N 38°57' W 075°11'0 0.0
2018-Jun-20 23:29N 38°57' W 075°11'0 0.0
2018-Jun-20 22:59N 38°57' W 075°11'0 0.2
2018-Jun-20 22:29N 38°57' W 075°11'0 0.5
2018-Jun-20 21:59N 38°57' W 075°11'0 0.1
2018-Jun-20 21:29N 38°57' W 075°11'0 0.1
2018-Jun-20 20:59N 38°57' W 075°11'0 0.0
2018-Jun-20 20:29N 38°57' W 075°11'0 0.0
2018-Jun-20 19:59N 38°57' W 075°11'0 0.0
2018-Jun-20 19:29N 38°57' W 075°11'0 0.1
2018-Jun-20 18:59N 38°57' W 075°11'0 0.1
2018-Jun-20 18:29N 38°57' W 075°11'0 0.0
2018-Jun-20 17:59N 38°57' W 075°11'0 0.0
2018-Jun-20 17:29N 38°57' W 075°11'0 0.0
2018-Jun-20 16:59N 38°57' W 075°11'0 0.0
2018-Jun-20 16:29N 38°57' W 075°11'0 0.0
2018-Jun-20 15:59N 38°57' W 075°11'0 0.1
2018-Jun-20 15:23N 38°57' W 075°11'0 0.3
2018-Jun-20 14:59N 38°57' W 075°11'0 0.4
2018-Jun-20 14:29N 38°57' W 075°11'0 0.1
2018-Jun-20 13:47N 38°57' W 075°11'0 0.1
2018-Jun-20 13:26N 38°57' W 075°11'0 0.0
2018-Jun-20 12:59N 38°57' W 075°11'0 0.0
2018-Jun-20 12:23N 38°57' W 075°11'0 0.0
2018-Jun-20 11:56N 38°57' W 075°11'0 0.0
2018-Jun-20 11:08N 38°57' W 075°11'0 0.1
2018-Jun-20 10:59N 38°57' W 075°11'0 0.0
2018-Jun-20 10:17N 38°57' W 075°11'0 0.0
2018-Jun-20 09:56N 38°57' W 075°11'0 0.0
2018-Jun-20 09:29N 38°57' W 075°11'0 0.4
2018-Jun-20 08:59N 38°57' W 075°11'0 0.3
2018-Jun-20 08:29N 38°57' W 075°11'0 0.1
2018-Jun-20 07:59N 38°57' W 075°11'0 0.0
2018-Jun-20 07:29N 38°57' W 075°11'0 0.0
2018-Jun-20 06:59N 38°57' W 075°11'0 0.0
2018-Jun-20 06:29N 38°57' W 075°11'0 0.0
2018-Jun-20 05:56N 38°57' W 075°11'0 0.1
2018-Jun-20 05:29N 38°57' W 075°11'0 0.0
2018-Jun-20 04:59N 38°57' W 075°11'0 0.0
2018-Jun-20 04:29N 38°57' W 075°11'0 0.0
2018-Jun-20 03:38N 38°57' W 075°11'0 0.1
2018-Jun-20 03:20N 38°57' W 075°11'0 0.1
2018-Jun-20 02:56N 38°57' W 075°11'0 0.3
2018-Jun-20 02:29N 38°57' W 075°11'0 0.3
2018-Jun-20 01:59N 38°57' W 075°11'0 0.1
2018-Jun-20 01:29N 38°57' W 075°11'0 0.0
2018-Jun-20 00:59N 38°57' W 075°11'0 0.0
2018-Jun-20 00:23N 38°57' W 075°11'0 0.0
2018-Jun-19 23:59N 38°57' W 075°11'0 0.0
2018-Jun-19 23:29N 38°57' W 075°11'0 0.0
2018-Jun-19 22:56N 38°57' W 075°11'0 0.0
2018-Jun-19 22:29N 38°57' W 075°11'0 0.0
2018-Jun-19 21:50N 38°57' W 075°11'0 0.0
2018-Jun-19 21:29N 38°57' W 075°11'0 0.1
2018-Jun-19 20:59N 38°57' W 075°11'0 0.3
2018-Jun-19 20:23N 38°57' W 075°11'0 0.2
2018-Jun-19 19:56N 38°57' W 075°11'0 0.0
2018-Jun-19 19:29N 38°57' W 075°11'0 0.0
2018-Jun-19 18:59N 38°57' W 075°11'0 0.0
2018-Jun-18 15:32N 38°57' W 075°11'0 0.0
2018-Jun-18 15:29N 38°57' W 075°11'0 0.1
2018-Jun-18 14:59N 38°57' W 075°11'0 0.1
2018-Jun-18 14:23N 38°57' W 075°11'0 0.0
2018-Jun-18 13:59N 38°57' W 075°11'0 0.1
2018-Jun-18 13:29N 38°57' W 075°11'0 0.2
2018-Jun-18 12:59N 38°57' W 075°11'0 0.3
2018-Jun-18 12:29N 38°57' W 075°11'0 0.1
2018-Jun-18 11:59N 38°57' W 075°11'0 0.0
2018-Jun-18 11:29N 38°57' W 075°11'0 0.0
2018-Jun-18 10:59N 38°57' W 075°11'0 0.0
2018-Jun-18 10:29N 38°57' W 075°11'0 0.0
2018-Jun-18 09:59N 38°57' W 075°11'0 0.0
2018-Jun-18 09:29N 38°57' W 075°11'0 0.0
2018-Jun-18 08:59N 38°57' W 075°11'0 0.0
2018-Jun-18 08:29N 38°57' W 075°11'0 0.0
2018-Jun-18 07:59N 38°57' W 075°11'0 0.1
2018-Jun-18 07:29N 38°57' W 075°11'0 0.4
2018-Jun-18 06:59N 38°57' W 075°11'0 0.3
2018-Jun-18 06:26N 38°57' W 075°11'0 0.0
2018-Jun-18 05:59N 38°57' W 075°11'0 0.0
2018-Jun-18 05:29N 38°57' W 075°11'0 0.0
2018-Jun-18 04:56N 38°57' W 075°11'0 0.0
2018-Jun-18 04:29N 38°57' W 075°11'0 0.0
2018-Jun-18 03:59N 38°57' W 075°11'0 0.0
2018-Jun-18 03:29N 38°57' W 075°11'0 0.0
2018-Jun-18 02:59N 38°57' W 075°11'0 0.0
2018-Jun-18 02:29N 38°57' W 075°11'0 0.0
2018-Jun-18 01:59N 38°57' W 075°11'0 0.0
2018-Jun-18 01:29N 38°57' W 075°11'0 0.0
2018-Jun-18 00:56N 38°57' W 075°11'0 0.2
2018-Jun-18 00:17N 38°57' W 075°11'0 0.5
2018-Jun-17 23:56N 38°57' W 075°11'0 0.1
2018-Jun-17 23:29N 38°57' W 075°11'0 0.0
2018-Jun-17 22:59N 38°57' W 075°11'0 0.0
2018-Jun-17 22:29N 38°57' W 075°11'0 0.1
2018-Jun-17 21:56N 38°57' W 075°11'0 0.0
2018-Jun-17 21:26N 38°57' W 075°11'0 0.0
2018-Jun-17 20:38N 38°57' W 075°11'0 0.2
2018-Jun-17 20:29N 38°57' W 075°11'0 0.1
2018-Jun-17 15:20N 38°57' W 075°11'0 0.0
2018-Jun-17 14:59N 38°57' W 075°11'0 0.0
2018-Jun-17 14:29N 38°57' W 075°11'0 0.1
2018-Jun-17 13:59N 38°57' W 075°11'0 0.0
2018-Jun-17 13:23N 38°57' W 075°11'0 0.2
2018-Jun-17 12:56N 38°57' W 075°11'0 0.4
2018-Jun-17 12:29N 38°57' W 075°11'0 0.1
2018-Jun-17 11:59N 38°57' W 075°11'0 0.1
2018-Jun-17 11:29N 38°57' W 075°11'0 0.1
2018-Jun-17 10:59N 38°57' W 075°11'0 0.1
2018-Jun-17 10:29N 38°57' W 075°11'0 0.0
2018-Jun-17 09:56N 38°57' W 075°11'0 0.0
2018-Jun-17 06:17N 38°57' W 075°11'0 0.2
2018-Jun-17 04:53N 38°57' W 075°11'0 0.0
2018-Jun-17 04:29N 38°57' W 075°11'0 0.0
2018-Jun-17 01:47N 38°57' W 075°11'0 0.0
2018-Jun-17 01:23N 38°57' W 075°11'0 0.0
2018-Jun-17 00:53N 38°57' W 075°11'0 0.0
2018-Jun-17 00:17N 38°57' W 075°11'0 0.0
2018-Jun-16 15:08N 38°57' W 075°11'0 0.0
2018-Jun-16 14:59N 38°57' W 075°11'0 0.0
2018-Jun-16 14:29N 38°57' W 075°11'0 0.0
2018-Jun-16 13:59N 38°57' W 075°11'0 0.0
2018-Jun-16 13:29N 38°57' W 075°11'0 0.1
2018-Jun-16 12:56N 38°57' W 075°11'0 0.0
2018-Jun-16 12:29N 38°57' W 075°11'0 0.0
2018-Jun-16 11:56N 38°57' W 075°11'0 0.4
2018-Jun-16 11:29N 38°57' W 075°11'0 0.2
2018-Jun-16 10:59N 38°57' W 075°11'0 0.1
2018-Jun-16 10:29N 38°57' W 075°11'0 0.1
2018-Jun-16 09:59N 38°57' W 075°11'0 0.0
2018-Jun-16 09:29N 38°57' W 075°11'0 0.0
2018-Jun-16 08:59N 38°57' W 075°11'0 0.1
2018-Jun-16 08:29N 38°57' W 075°11'0 0.1
2018-Jun-16 07:59N 38°57' W 075°11'0 0.1
2018-Jun-16 07:29N 38°57' W 075°11'0 0.0
2018-Jun-16 06:59N 38°57' W 075°11'0 0.0
2018-Jun-16 06:29N 38°57' W 075°11'0 0.0
2018-Jun-16 05:59N 38°57' W 075°11'0 0.3
2018-Jun-16 05:29N 38°57' W 075°11'0 0.4
2018-Jun-16 04:59N 38°57' W 075°11'0 0.1
2018-Jun-16 04:29N 38°57' W 075°11'0 0.0
2018-Jun-16 03:56N 38°57' W 075°11'0 0.0
2018-Jun-16 03:29N 38°57' W 075°11'0 0.0
2018-Jun-15 17:26N 38°57' W 075°11'0 0.1
2018-Jun-15 16:59N 38°57' W 075°11'0 0.4
2018-Jun-15 16:29N 38°57' W 075°11'0 0.2
2018-Jun-15 15:59N 38°57' W 075°11'0 0.1
2018-Jun-15 15:29N 38°57' W 075°11'0 0.0
2018-Jun-15 14:59N 38°57' W 075°11'0 0.0
2018-Jun-15 14:29N 38°57' W 075°11'0 0.0
2018-Jun-15 13:59N 38°57' W 075°11'0 0.1
2018-Jun-15 13:29N 38°57' W 075°11'0 0.0
2018-Jun-15 12:47N 38°57' W 075°11'0 0.0
2018-Jun-15 11:53N 38°57' W 075°11'0 0.1
2018-Jun-15 11:29N 38°57' W 075°11'0 0.2
2018-Jun-15 10:59N 38°57' W 075°11'0 0.5
2018-Jun-15 10:29N 38°57' W 075°11'0 0.2
2018-Jun-15 09:59N 38°57' W 075°11'  
Track history (hours):
 
Tides and Currents Weather Stations Pressure Air Temp Water Temp Dewpoint Dewpoint Depression Visibility Wind Speed Wind Dir Waves Ship Positions

Almi Sky

Last reported at 2018-Jun-25 09:49 UTC. Time now 2018-Jul-18 18:35 UTC.
Position N 37°56' W 073°55'.
Warning: this ship's position is 23 days out of date.

Length 274 m; draft 9.5 m.

Type: Ship (hazmat cat D). MMSI: 636015761.

Date/timePositionNaut miles runAvg speedWind from/ knotsBaromVisibWave heightAir tempDewpointWater temp
2018-Jun-25 09:49N 37°56' W 073°55'515.2
2018-Jun-25 09:31N 37°59' W 073°60'2615.2
2018-Jun-25 07:49N 38°15' W 074°25'514.8
2018-Jun-25 07:30N 38°18' W 074°30'815.2
2018-Jun-25 07:01N 38°23' W 074°37'815.4
2018-Jun-25 06:30N 38°28' W 074°45'1615.1
2018-Jun-25 05:27N 38°41' W 074°57'716.0
2018-Jun-25 05:00N 38°46' W 075°02'713.8
2018-Jun-25 04:30N 38°53' W 075°05'917.7
2018-Jun-25 04:00N 39°01' W 075°09'815.2
2018-Jun-25 03:30N 39°08' W 075°14'815.6
2018-Jun-25 03:00N 39°15' W 075°19'815.8
2018-Jun-25 02:30N 39°20' W 075°26'713.2
2018-Jun-25 02:00N 39°25' W 075°31'4 8.5
2018-Jun-25 01:30N 39°29' W 075°34'4 7.8
2018-Jun-25 01:00N 39°33' W 075°32'611.0
2018-Jun-25 00:30N 39°38' W 075°34'611.3
2018-Jun-25 00:01N 39°43' W 075°30'510.1
2018-Jun-24 23:31N 39°47' W 075°27'2 4.0
2018-Jun-24 22:59N 39°48' W 075°24'0 0.3
2018-Jun-24 22:29N 39°48' W 075°25'0 0.3
2018-Jun-24 21:59N 39°48' W 075°25'0 0.1
2018-Jun-24 21:30N 39°48' W 075°25'0 0.0
2018-Jun-24 20:59N 39°48' W 075°25'0 0.0
2018-Jun-24 20:29N 39°48' W 075°25'0 0.0
2018-Jun-24 19:59N 39°48' W 075°25'0 0.0
2018-Jun-24 19:29N 39°48' W 075°25'0 0.1
2018-Jun-24 18:56N 39°48' W 075°25'0 0.0
2018-Jun-24 18:29N 39°48' W 075°25'0 0.0
2018-Jun-24 17:59N 39°48' W 075°25'0 0.1
2018-Jun-24 17:29N 39°48' W 075°25'0 0.2
2018-Jun-24 16:59N 39°48' W 075°24'0 0.3
2018-Jun-24 16:29N 39°48' W 075°24'0 0.1
2018-Jun-24 15:59N 39°48' W 075°24'0 0.0
2018-Jun-24 15:29N 39°48' W 075°24'0 0.0
2018-Jun-24 14:59N 39°48' W 075°24'0 0.0
2018-Jun-24 14:29N 39°48' W 075°24'0 0.0
2018-Jun-24 13:59N 39°48' W 075°24'0 0.0
2018-Jun-24 13:29N 39°48' W 075°24'0 0.0
2018-Jun-24 12:59N 39°48' W 075°24'0 0.0
2018-Jun-24 12:26N 39°48' W 075°24'0 0.0
2018-Jun-24 11:59N 39°48' W 075°24'0 0.0
2018-Jun-24 11:29N 39°48' W 075°24'0 0.5
2018-Jun-24 10:59N 39°48' W 075°25'0 0.2
2018-Jun-24 10:29N 39°48' W 075°25'0 0.1
2018-Jun-24 09:59N 39°48' W 075°25'0 0.1
2018-Jun-24 09:29N 39°48' W 075°25'0 0.0
2018-Jun-24 08:59N 39°48' W 075°25'0 0.0
2018-Jun-24 08:29N 39°48' W 075°25'0 0.0
2018-Jun-24 07:59N 39°48' W 075°25'0 0.0
2018-Jun-24 07:29N 39°48' W 075°25'0 0.1
2018-Jun-24 06:59N 39°48' W 075°25'1 1.0
2018-Jun-24 06:26N 39°49' W 075°24'0 0.0
2018-Jun-24 05:59N 39°49' W 075°24'0 0.0
2018-Jun-24 05:29N 39°49' W 075°24'0 0.0
2018-Jun-24 04:59N 39°49' W 075°24'0 0.0
2018-Jun-24 04:29N 39°49' W 075°24'0 0.0
2018-Jun-24 03:59N 39°49' W 075°24'0 0.0
2018-Jun-24 03:29N 39°49' W 075°24'0 0.0
2018-Jun-24 03:00N 39°49' W 075°24'0 0.0
2018-Jun-24 02:29N 39°49' W 075°24'0 0.0
2018-Jun-24 02:00N 39°49' W 075°24'0 0.0
2018-Jun-24 01:29N 39°49' W 075°24'0 0.0
2018-Jun-24 00:59N 39°49' W 075°24'0 0.0
2018-Jun-24 00:26N 39°49' W 075°24'0 0.0
2018-Jun-24 00:00N 39°49' W 075°24'0 0.0
2018-Jun-23 23:29N 39°49' W 075°24'0 0.0
2018-Jun-23 23:00N 39°49' W 075°24'0 0.0
2018-Jun-23 22:30N 39°49' W 075°24'0 0.0
2018-Jun-23 21:59N 39°49' W 075°24'0 0.0
2018-Jun-23 21:27N 39°49' W 075°24'0 0.0
2018-Jun-23 21:00N 39°49' W 075°24'0 0.0
2018-Jun-23 20:29N 39°49' W 075°24'0 0.0
2018-Jun-23 19:56N 39°49' W 075°24'0 0.0
2018-Jun-23 19:30N 39°49' W 075°24'0 0.0
2018-Jun-23 19:00N 39°49' W 075°24'0 0.0
2018-Jun-23 18:29N 39°49' W 075°24'0 0.0
2018-Jun-23 18:00N 39°49' W 075°24'0 0.0
2018-Jun-23 17:29N 39°49' W 075°24'0 0.0
2018-Jun-23 17:00N 39°49' W 075°24'0 0.0
2018-Jun-23 16:30N 39°49' W 075°24'0 0.0
2018-Jun-23 15:59N 39°49' W 075°24'0 0.0
2018-Jun-23 15:29N 39°49' W 075°24'0 0.0
2018-Jun-23 14:59N 39°49' W 075°24'0 0.0
2018-Jun-23 14:29N 39°49' W 075°24'0 0.0
2018-Jun-23 13:59N 39°49' W 075°24'0 0.0
2018-Jun-23 13:29N 39°49' W 075°24'0 0.0
2018-Jun-23 12:59N 39°49' W 075°24'0 0.0
2018-Jun-23 12:29N 39°49' W 075°24'0 0.0
2018-Jun-23 11:59N 39°49' W 075°24'0 0.0
2018-Jun-23 11:29N 39°49' W 075°24'0 0.0
2018-Jun-23 10:59N 39°49' W 075°24'0 0.0
2018-Jun-23 10:29N 39°49' W 075°24'0 0.0
2018-Jun-23 09:59N 39°49' W 075°24'0 0.0
2018-Jun-23 09:29N 39°49' W 075°24'0 0.0
2018-Jun-23 09:00N 39°49' W 075°24'0 0.0
2018-Jun-23 08:29N 39°49' W 075°24'0 0.0
2018-Jun-23 07:59N 39°49' W 075°24'0 0.0
2018-Jun-23 07:29N 39°49' W 075°24'0 0.0
2018-Jun-23 06:59N 39°49' W 075°24'0 0.0
2018-Jun-23 06:29N 39°49' W 075°24'0 0.0
2018-Jun-23 05:59N 39°49' W 075°24'0 0.0
2018-Jun-23 05:29N 39°49' W 075°24'0 0.0
2018-Jun-23 04:59N 39°49' W 075°24'0 0.0
2018-Jun-23 04:29N 39°49' W 075°24'0 0.0
2018-Jun-23 03:59N 39°49' W 075°24'0 0.0
2018-Jun-23 03:29N 39°49' W 075°24'0 0.0
2018-Jun-23 02:59N 39°49' W 075°24'0 0.0
2018-Jun-23 02:29N 39°49' W 075°24'0 0.0
2018-Jun-23 01:56N 39°49' W 075°24'0 0.0
2018-Jun-23 01:29N 39°49' W 075°24'0 0.0
2018-Jun-23 00:59N 39°49' W 075°24'0 0.0
2018-Jun-23 00:29N 39°49' W 075°24'0 0.0
2018-Jun-22 23:59N 39°49' W 075°24'0 0.0
2018-Jun-22 23:29N 39°49' W 075°24'0 0.0
2018-Jun-22 22:59N 39°49' W 075°24'0 0.0
2018-Jun-22 22:29N 39°49' W 075°24'0 0.0
2018-Jun-22 21:59N 39°49' W 075°24'0 0.0
2018-Jun-22 21:29N 39°49' W 075°24'0 0.0
2018-Jun-22 20:59N 39°49' W 075°24'0 0.0
2018-Jun-22 20:29N 39°49' W 075°24'0 0.0
2018-Jun-22 19:59N 39°49' W 075°24'0 0.0
2018-Jun-22 19:29N 39°49' W 075°24'0 0.0
2018-Jun-22 18:59N 39°49' W 075°24'0 0.0
2018-Jun-22 18:30N 39°49' W 075°24'0 0.0
2018-Jun-22 17:59N 39°49' W 075°24'0 0.0
2018-Jun-22 17:29N 39°49' W 075°24'0 0.0
2018-Jun-22 16:56N 39°49' W 075°24'0 0.0
2018-Jun-22 16:30N 39°49' W 075°24'0 0.0
2018-Jun-22 16:00N 39°49' W 075°24'0 0.0
2018-Jun-22 15:29N 39°49' W 075°24'0 0.0
2018-Jun-22 14:56N 39°49' W 075°24'0 0.0
2018-Jun-22 14:29N 39°49' W 075°24'0 0.0
2018-Jun-22 13:59N 39°49' W 075°24'0 0.0
2018-Jun-22 13:29N 39°49' W 075°24'0 0.0
2018-Jun-22 12:59N 39°49' W 075°24'0 0.0
2018-Jun-22 12:29N 39°49' W 075°24'0 0.0
2018-Jun-22 11:59N 39°49' W 075°24'0 0.0
2018-Jun-22 11:23N 39°49' W 075°24'0 0.0
2018-Jun-22 10:59N 39°49' W 075°24'0 0.0
2018-Jun-22 10:29N 39°49' W 075°24'0 0.0
2018-Jun-22 09:56N 39°49' W 075°24'0 0.0
2018-Jun-22 09:29N 39°49' W 075°24'0 0.0
2018-Jun-22 08:59N 39°49' W 075°24'0 0.0
2018-Jun-22 08:26N 39°49' W 075°24'0 0.0
2018-Jun-22 07:59N 39°49' W 075°24'0 0.0
2018-Jun-22 07:26N 39°49' W 075°24'0 0.0
2018-Jun-22 06:59N 39°49' W 075°24'0 0.0
2018-Jun-22 06:29N 39°49' W 075°24'0 0.0
2018-Jun-22 05:59N 39°49' W 075°24'0 0.0
2018-Jun-22 05:29N 39°49' W 075°24'0 0.0
2018-Jun-22 04:59N 39°49' W 075°24'0 0.0
2018-Jun-22 04:29N 39°49' W 075°24'0 0.0
2018-Jun-22 03:59N 39°49' W 075°24'0 0.0
2018-Jun-22 03:29N 39°49' W 075°24'0 0.0
2018-Jun-22 02:59N 39°49' W 075°24'0 0.0
2018-Jun-22 02:29N 39°49' W 075°24'0 0.0
2018-Jun-22 01:59N 39°49' W 075°24'0 0.0
2018-Jun-22 01:29N 39°49' W 075°24'0 0.0
2018-Jun-22 00:59N 39°49' W 075°24'0 0.0
2018-Jun-22 00:29N 39°49' W 075°24'0 0.0
2018-Jun-21 23:59N 39°49' W 075°24'0 0.0
2018-Jun-21 23:26N 39°49' W 075°24'0 0.0
2018-Jun-21 22:59N 39°49' W 075°24'0 0.0
2018-Jun-21 22:30N 39°49' W 075°24'0 0.0
2018-Jun-21 21:59N 39°49' W 075°24'0 0.0
2018-Jun-21 21:30N 39°49' W 075°24'0 0.0
2018-Jun-21 20:59N 39°49' W 075°24'0 0.0
2018-Jun-21 20:29N 39°49' W 075°24'0 0.0
2018-Jun-21 19:59N 39°49' W 075°24'0 0.0
2018-Jun-21 19:29N 39°49' W 075°24'0 0.0
2018-Jun-21 18:59N 39°49' W 075°24'0 0.0
2018-Jun-21 18:29N 39°49' W 075°24'0 0.0
2018-Jun-21 17:59N 39°49' W 075°24'0 0.0
2018-Jun-21 17:29N 39°49' W 075°24'0 0.0
2018-Jun-21 16:59N 39°49' W 075°24'0 0.0
2018-Jun-21 16:29N 39°49' W 075°24'0 0.0
2018-Jun-21 15:59N 39°49' W 075°24'0 0.0
2018-Jun-21 15:29N 39°49' W 075°24'0 0.0
2018-Jun-21 14:59N 39°49' W 075°24'0 0.0
2018-Jun-21 14:29N 39°49' W 075°24'0 0.0
2018-Jun-21 13:59N 39°49' W 075°24'0 0.0
2018-Jun-21 13:29N 39°49' W 075°24'0 0.0
2018-Jun-21 12:59N 39°49' W 075°24'0 0.0
2018-Jun-21 12:29N 39°49' W 075°24'0 0.0
2018-Jun-21 11:59N 39°49' W 075°24'0 0.0
2018-Jun-21 11:29N 39°49' W 075°24'0 0.0
2018-Jun-21 10:59N 39°49' W 075°24'0 0.0
2018-Jun-21 10:30N 39°49' W 075°24'1 1.6
2018-Jun-21 10:00N 39°48' W 075°25'3 5.7
2018-Jun-21 09:30N 39°46' W 075°28'4 7.9
2018-Jun-21 09:00N 39°43' W 075°30'4 8.2
2018-Jun-21 08:30N 39°39' W 075°33'510.5
2018-Jun-21 08:00N 39°34' W 075°33'612.6
2018-Jun-21 07:30N 39°28' W 075°34'714.3
2018-Jun-21 07:00N 39°22' W 075°28'714.6
2018-Jun-21 06:30N 39°17' W 075°21'714.0
2018-Jun-21 06:00N 39°11' W 075°16'611.9
2018-Jun-21 05:30N 39°06' W 075°12'713.9
2018-Jun-21 05:01N 38°60' W 075°08'713.3
2018-Jun-21 04:30N 38°54' W 075°05'4 8.5
2018-Jun-21 04:00N 38°56' W 075°09'2 3.1
2018-Jun-21 03:30N 38°57' W 075°11'0 0.1
2018-Jun-21 02:59N 38°57' W 075°11'0 0.1
2018-Jun-21 02:26N 38°57' W 075°11'0 0.0
2018-Jun-21 01:59N 38°57' W 075°11'0 0.0
2018-Jun-21 01:29N 38°57' W 075°11'0 0.0
2018-Jun-21 00:59N 38°57' W 075°11'0 0.0
2018-Jun-21 00:26N 38°57' W 075°11'0 0.0
2018-Jun-20 23:59N 38°57' W 075°11'0 0.0
2018-Jun-20 23:29N 38°57' W 075°11'0 0.0
2018-Jun-20 22:59N 38°57' W 075°11'0 0.2
2018-Jun-20 22:29N 38°57' W 075°11'0 0.5
2018-Jun-20 21:59N 38°57' W 075°11'0 0.1
2018-Jun-20 21:29N 38°57' W 075°11'0 0.1
2018-Jun-20 20:59N 38°57' W 075°11'0 0.0
2018-Jun-20 20:29N 38°57' W 075°11'0 0.0
2018-Jun-20 19:59N 38°57' W 075°11'0 0.0
2018-Jun-20 19:29N 38°57' W 075°11'0 0.1
2018-Jun-20 18:59N 38°57' W 075°11'0 0.1
2018-Jun-20 18:29N 38°57' W 075°11'0 0.0
2018-Jun-20 17:59N 38°57' W 075°11'0 0.0
2018-Jun-20 17:29N 38°57' W 075°11'0 0.0
2018-Jun-20 16:59N 38°57' W 075°11'0 0.0
2018-Jun-20 16:29N 38°57' W 075°11'0 0.0
2018-Jun-20 15:59N 38°57' W 075°11'0 0.1
2018-Jun-20 15:23N 38°57' W 075°11'0 0.3
2018-Jun-20 14:59N 38°57' W 075°11'0 0.4
2018-Jun-20 14:29N 38°57' W 075°11'0 0.1
2018-Jun-20 13:47N 38°57' W 075°11'0 0.1
2018-Jun-20 13:26N 38°57' W 075°11'0 0.0
2018-Jun-20 12:59N 38°57' W 075°11'0 0.0
2018-Jun-20 12:23N 38°57' W 075°11'0 0.0
2018-Jun-20 11:56N 38°57' W 075°11'0 0.0
2018-Jun-20 11:08N 38°57' W 075°11'0 0.1
2018-Jun-20 10:59N 38°57' W 075°11'0 0.0
2018-Jun-20 10:17N 38°57' W 075°11'0 0.0
2018-Jun-20 09:56N 38°57' W 075°11'0 0.0
2018-Jun-20 09:29N 38°57' W 075°11'0 0.4
2018-Jun-20 08:59N 38°57' W 075°11'0 0.3
2018-Jun-20 08:29N 38°57' W 075°11'0 0.1
2018-Jun-20 07:59N 38°57' W 075°11'0 0.0
2018-Jun-20 07:29N 38°57' W 075°11'0 0.0
2018-Jun-20 06:59N 38°57' W 075°11'0 0.0
2018-Jun-20 06:29N 38°57' W 075°11'0 0.0
2018-Jun-20 05:56N 38°57' W 075°11'0 0.1
2018-Jun-20 05:29N 38°57' W 075°11'0 0.0
2018-Jun-20 04:59N 38°57' W 075°11'0 0.0
2018-Jun-20 04:29N 38°57' W 075°11'0 0.0
2018-Jun-20 03:38N 38°57' W 075°11'0 0.1
2018-Jun-20 03:20N 38°57' W 075°11'0 0.1
2018-Jun-20 02:56N 38°57' W 075°11'0 0.3
2018-Jun-20 02:29N 38°57' W 075°11'0 0.3
2018-Jun-20 01:59N 38°57' W 075°11'0 0.1
2018-Jun-20 01:29N 38°57' W 075°11'0 0.0
2018-Jun-20 00:59N 38°57' W 075°11'0 0.0
2018-Jun-20 00:23N 38°57' W 075°11'0 0.0
2018-Jun-19 23:59N 38°57' W 075°11'0 0.0
2018-Jun-19 23:29N 38°57' W 075°11'0 0.0
2018-Jun-19 22:56N 38°57' W 075°11'0 0.0
2018-Jun-19 22:29N 38°57' W 075°11'0 0.0
2018-Jun-19 21:50N 38°57' W 075°11'0 0.0
2018-Jun-19 21:29N 38°57' W 075°11'0 0.1
2018-Jun-19 20:59N 38°57' W 075°11'0 0.3
2018-Jun-19 20:23N 38°57' W 075°11'0 0.2
2018-Jun-19 19:56N 38°57' W 075°11'0 0.0
2018-Jun-19 19:29N 38°57' W 075°11'0 0.0
2018-Jun-19 18:59N 38°57' W 075°11'0 0.0
2018-Jun-18 15:32N 38°57' W 075°11'0 0.0
2018-Jun-18 15:29N 38°57' W 075°11'0 0.1
2018-Jun-18 14:59N 38°57' W 075°11'0 0.1
2018-Jun-18 14:23N 38°57' W 075°11'0 0.0
2018-Jun-18 13:59N 38°57' W 075°11'0 0.1
2018-Jun-18 13:29N 38°57' W 075°11'0 0.2
2018-Jun-18 12:59N 38°57' W 075°11'0 0.3
2018-Jun-18 12:29N 38°57' W 075°11'0 0.1
2018-Jun-18 11:59N 38°57' W 075°11'0 0.0
2018-Jun-18 11:29N 38°57' W 075°11'0 0.0
2018-Jun-18 10:59N 38°57' W 075°11'0 0.0
2018-Jun-18 10:29N 38°57' W 075°11'0 0.0
2018-Jun-18 09:59N 38°57' W 075°11'0 0.0
2018-Jun-18 09:29N 38°57' W 075°11'0 0.0
2018-Jun-18 08:59N 38°57' W 075°11'0 0.0
2018-Jun-18 08:29N 38°57' W 075°11'0 0.0
2018-Jun-18 07:59N 38°57' W 075°11'0 0.1
2018-Jun-18 07:29N 38°57' W 075°11'0 0.4
2018-Jun-18 06:59N 38°57' W 075°11'0 0.3
2018-Jun-18 06:26N 38°57' W 075°11'0 0.0
2018-Jun-18 05:59N 38°57' W 075°11'0 0.0
2018-Jun-18 05:29N 38°57' W 075°11'0 0.0
2018-Jun-18 04:56N 38°57' W 075°11'0 0.0
2018-Jun-18 04:29N 38°57' W 075°11'0 0.0
2018-Jun-18 03:59N 38°57' W 075°11'0 0.0
2018-Jun-18 03:29N 38°57' W 075°11'0 0.0
2018-Jun-18 02:59N 38°57' W 075°11'0 0.0
2018-Jun-18 02:29N 38°57' W 075°11'0 0.0
2018-Jun-18 01:59N 38°57' W 075°11'0 0.0
2018-Jun-18 01:29N 38°57' W 075°11'0 0.0
2018-Jun-18 00:56N 38°57' W 075°11'0 0.2
2018-Jun-18 00:17N 38°57' W 075°11'0 0.5
2018-Jun-17 23:56N 38°57' W 075°11'0 0.1
2018-Jun-17 23:29N 38°57' W 075°11'0 0.0
2018-Jun-17 22:59N 38°57' W 075°11'0 0.0
2018-Jun-17 22:29N 38°57' W 075°11'0 0.1
2018-Jun-17 21:56N 38°57' W 075°11'0 0.0
2018-Jun-17 21:26N 38°57' W 075°11'0 0.0
2018-Jun-17 20:38N 38°57' W 075°11'0 0.2
2018-Jun-17 20:29N 38°57' W 075°11'0 0.1
2018-Jun-17 15:20N 38°57' W 075°11'0 0.0
2018-Jun-17 14:59N 38°57' W 075°11'0 0.0
2018-Jun-17 14:29N 38°57' W 075°11'0 0.1
2018-Jun-17 13:59N 38°57' W 075°11'0 0.0
2018-Jun-17 13:23N 38°57' W 075°11'0 0.2
2018-Jun-17 12:56N 38°57' W 075°11'0 0.4
2018-Jun-17 12:29N 38°57' W 075°11'0 0.1
2018-Jun-17 11:59N 38°57' W 075°11'0 0.1
2018-Jun-17 11:29N 38°57' W 075°11'0 0.1
2018-Jun-17 10:59N 38°57' W 075°11'0 0.1
2018-Jun-17 10:29N 38°57' W 075°11'0 0.0
2018-Jun-17 09:56N 38°57' W 075°11'0 0.0
2018-Jun-17 06:17N 38°57' W 075°11'0 0.2
2018-Jun-17 04:53N 38°57' W 075°11'0 0.0
2018-Jun-17 04:29N 38°57' W 075°11'0 0.0
2018-Jun-17 01:47N 38°57' W 075°11'0 0.0
2018-Jun-17 01:23N 38°57' W 075°11'0 0.0
2018-Jun-17 00:53N 38°57' W 075°11'0 0.0
2018-Jun-17 00:17N 38°57' W 075°11'0 0.0
2018-Jun-16 15:08N 38°57' W 075°11'0 0.0
2018-Jun-16 14:59N 38°57' W 075°11'0 0.0
2018-Jun-16 14:29N 38°57' W 075°11'0 0.0
2018-Jun-16 13:59N 38°57' W 075°11'0 0.0
2018-Jun-16 13:29N 38°57' W 075°11'0 0.1
2018-Jun-16 12:56N 38°57' W 075°11'0 0.0
2018-Jun-16 12:29N 38°57' W 075°11'0 0.0
2018-Jun-16 11:56N 38°57' W 075°11'0 0.4
2018-Jun-16 11:29N 38°57' W 075°11'0 0.2
2018-Jun-16 10:59N 38°57' W 075°11'0 0.1
2018-Jun-16 10:29N 38°57' W 075°11'0 0.1
2018-Jun-16 09:59N 38°57' W 075°11'0 0.0
2018-Jun-16 09:29N 38°57' W 075°11'0 0.0
2018-Jun-16 08:59N 38°57' W 075°11'0 0.1
2018-Jun-16 08:29N 38°57' W 075°11'0 0.1
2018-Jun-16 07:59N 38°57' W 075°11'0 0.1
2018-Jun-16 07:29N 38°57' W 075°11'0 0.0
2018-Jun-16 06:59N 38°57' W 075°11'0 0.0
2018-Jun-16 06:29N 38°57' W 075°11'0 0.0
2018-Jun-16 05:59N 38°57' W 075°11'0 0.3
2018-Jun-16 05:29N 38°57' W 075°11'0 0.4
2018-Jun-16 04:59N 38°57' W 075°11'0 0.1
2018-Jun-16 04:29N 38°57' W 075°11'0 0.0
2018-Jun-16 03:56N 38°57' W 075°11'0 0.0
2018-Jun-16 03:29N 38°57' W 075°11'0 0.0
2018-Jun-15 17:26N 38°57' W 075°11'0 0.1
2018-Jun-15 16:59N 38°57' W 075°11'0 0.4
2018-Jun-15 16:29N 38°57' W 075°11'0 0.2
2018-Jun-15 15:59N 38°57' W 075°11'0 0.1
2018-Jun-15 15:29N 38°57' W 075°11'0 0.0
2018-Jun-15 14:59N 38°57' W 075°11'0 0.0
2018-Jun-15 14:29N 38°57' W 075°11'0 0.0
2018-Jun-15 13:59N 38°57' W 075°11'0 0.1
2018-Jun-15 13:29N 38°57' W 075°11'0 0.0
2018-Jun-15 12:47N 38°57' W 075°11'0 0.0
2018-Jun-15 11:53N 38°57' W 075°11'0 0.1
2018-Jun-15 11:29N 38°57' W 075°11'0 0.2
2018-Jun-15 10:59N 38°57' W 075°11'0 0.5
2018-Jun-15 10:29N 38°57' W 075°11'0 0.2
2018-Jun-15 09:59N 38°57' W 075°11'  

Dump ship's entire track history